Time;durP1;ratioP1;P1;durP2;ratioP2;P2;SDS_P1;SDS_P2;PMS_P1;PMS_P2;Temp;Humidity;BMP_temperature;BMP_pressure;BME280_temperature;BME280_humidity;BME280_pressure;Samples;Min_cycle;Max_cycle;Signal;HPM_P1;HPM_P2
2022/02/21 00:00:05;;;;;;;0.65;0.50;;;20.00;38.50;;;;;;5095271;28;20063;-76
2022/02/21 00:02:42;;;;;;;0.68;0.50;;;20.00;38.50;;;;;;5097052;28;20090;-76
2022/02/21 00:05:08;;;;;;;0.43;0.40;;;20.00;38.50;;;;;;5114034;28;20052;-76
2022/02/21 00:07:33;;;;;;;0.45;0.45;;;20.00;38.50;;;;;;5095437;28;20044;-76
2022/02/21 00:09:59;;;;;;;0.40;0.40;;;20.00;38.50;;;;;;5114082;28;20047;-76
2022/02/21 00:12:25;;;;;;;0.40;0.40;;;20.00;38.50;;;;;;5113978;28;20066;-76
2022/02/21 00:14:50;;;;;;;0.50;0.50;;;20.00;38.50;;;;;;5113182;28;20491;-76
2022/02/21 00:17:16;;;;;;;0.40;0.40;;;20.00;38.50;;;;;;5113810;28;20047;-76
2022/02/21 00:19:42;;;;;;;0.40;0.40;;;20.00;38.50;;;;;;5113681;28;20043;-76
2022/02/21 00:22:08;;;;;;;0.60;0.40;;;20.00;38.50;;;;;;5113697;28;20043;-76
2022/02/21 00:24:34;;;;;;;0.47;0.40;;;20.00;38.50;;;;;;5113947;28;20400;-76
2022/02/21 00:26:59;;;;;;;0.50;0.50;;;20.00;38.50;;;;;;5095157;28;20043;-77
2022/02/21 00:29:25;;;;;;;0.30;0.30;;;20.00;38.50;;;;;;5113554;28;20101;-77
2022/02/21 00:31:50;;;;;;;0.40;0.40;;;20.00;38.50;;;;;;5113526;28;20055;-76
2022/02/21 00:34:16;;;;;;;0.40;0.40;;;20.00;38.50;;;;;;5114084;28;20051;-76
2022/02/21 00:36:41;;;;;;;0.50;0.50;;;20.00;38.50;;;;;;5113581;28;20056;-76
2022/02/21 00:39:07;;;;;;;0.50;0.50;;;20.00;38.50;;;;;;5113289;28;20051;-76
2022/02/21 00:41:33;;;;;;;0.70;0.40;;;20.00;38.50;;;;;;5113703;28;20475;-76
2022/02/21 00:43:58;;;;;;;0.30;0.30;;;20.00;38.50;;;;;;5113431;28;20466;-76
2022/02/21 00:46:24;;;;;;;0.55;0.50;;;20.00;38.40;;;;;;5094974;28;20055;-76
2022/02/21 00:48:49;;;;;;;0.60;0.40;;;20.10;38.40;;;;;;5113002;28;20094;-77
2022/02/21 00:51:16;;;;;;;0.47;0.40;;;20.10;38.40;;;;;;5113286;28;20052;-77
2022/02/21 00:53:43;;;;;;;0.45;0.45;;;20.10;38.40;;;;;;5110000;28;20056;-76
2022/02/21 00:56:11;;;;;;;0.63;0.50;;;20.10;38.50;;;;;;5095386;28;20051;-76
2022/02/21 00:58:36;;;;;;;0.40;0.40;;;20.10;38.50;;;;;;5113095;28;20495;-76
2022/02/21 01:01:03;;;;;;;0.73;0.50;;;20.10;38.50;;;;;;5113238;28;20047;-76
2022/02/21 01:03:28;;;;;;;0.40;0.40;;;20.10;38.40;;;;;;5094701;28;20073;-76
2022/02/21 01:05:54;;;;;;;0.40;0.40;;;20.10;38.40;;;;;;5110640;28;20055;-76
2022/02/21 01:08:19;;;;;;;0.85;0.50;;;20.10;38.40;;;;;;5112513;28;20105;-76
2022/02/21 01:10:45;;;;;;;0.32;0.32;;;20.10;38.40;;;;;;5113599;28;20146;-76
2022/02/21 01:13:10;;;;;;;0.35;0.35;;;20.10;38.40;;;;;;5113033;28;20134;-76
2022/02/21 01:15:36;;;;;;;0.43;0.43;;;20.10;38.40;;;;;;5113011;28;20052;-76
2022/02/21 01:18:02;;;;;;;0.50;0.50;;;20.10;38.40;;;;;;5112562;28;20406;-76
2022/02/21 01:20:28;;;;;;;0.70;0.50;;;20.10;38.40;;;;;;5112631;28;20051;-76
2022/02/21 01:22:53;;;;;;;0.47;0.47;;;20.10;38.40;;;;;;5112876;28;20051;-76
2022/02/21 01:25:19;;;;;;;0.30;0.30;;;20.10;38.30;;;;;;5112163;28;20484;-76
2022/02/21 01:27:44;;;;;;;0.40;0.40;;;20.20;38.40;;;;;;5116626;28;20441;-76
2022/02/21 01:30:11;;;;;;;0.40;0.40;;;20.10;38.40;;;;;;5116664;28;20143;-76
2022/02/21 01:32:37;;;;;;;0.65;0.50;;;20.20;38.40;;;;;;5116343;28;20130;-76
2022/02/21 01:35:04;;;;;;;0.47;0.47;;;20.10;38.30;;;;;;5116393;28;20491;-76
2022/02/21 01:37:29;;;;;;;0.40;0.40;;;20.20;38.40;;;;;;5116224;28;20104;-76
2022/02/21 01:39:55;;;;;;;0.50;0.50;;;20.20;38.40;;;;;;5116534;28;20522;-76
2022/02/21 01:42:21;;;;;;;0.50;0.50;;;20.20;38.40;;;;;;5116515;28;20387;-76
2022/02/21 01:44:48;;;;;;;0.40;0.40;;;20.20;38.40;;;;;;5097840;28;20406;-76
2022/02/21 01:47:20;;;;;;;0.57;0.57;;;20.10;38.30;;;;;;5116101;28;20040;-76
2022/02/21 01:49:47;;;;;;;0.50;0.50;;;20.20;38.40;;;;;;5097824;28;20070;-76
2022/02/21 01:52:12;;;;;;;0.30;0.30;;;20.20;38.40;;;;;;5097804;28;20450;-76
2022/02/21 01:54:38;;;;;;;0.40;0.40;;;20.10;38.40;;;;;;5115950;28;20051;-76
2022/02/21 01:57:05;;;;;;;0.60;0.50;;;20.20;38.40;;;;;;5116047;28;20063;-76
2022/02/21 01:59:35;;;;;;;0.82;0.52;;;20.20;38.40;;;;;;5115969;28;20487;-77
2022/02/21 02:02:01;;;;;;;0.50;0.50;;;20.10;38.40;;;;;;5097675;28;20085;-76
2022/02/21 02:04:28;;;;;;;0.45;0.45;;;20.20;39.00;;;;;;5115987;28;20143;-76
2022/02/21 02:06:53;;;;;;;0.95;0.50;;;20.20;38.50;;;;;;5116058;28;20043;-76
2022/02/21 02:09:19;;;;;;;0.50;0.50;;;20.10;38.40;;;;;;5115811;28;20062;-76
2022/02/21 02:11:46;;;;;;;0.40;0.40;;;20.10;38.40;;;;;;5115736;28;20448;-77
2022/02/21 02:14:35;;;;;;;0.47;0.47;;;20.10;38.40;;;;;;5095376;28;20491;-76
2022/02/21 02:17:05;;;;;;;0.40;0.40;;;20.20;38.50;;;;;;5097506;28;20051;-76
2022/02/21 02:19:31;;;;;;;0.50;0.50;;;20.20;38.50;;;;;;5093876;28;20051;-76
2022/02/21 02:21:58;;;;;;;0.40;0.40;;;20.20;38.50;;;;;;5115539;28;20059;-77
2022/02/21 02:24:25;;;;;;;0.70;0.70;;;20.10;38.40;;;;;;5115589;28;20054;-77
2022/02/21 02:26:54;;;;;;;0.57;0.57;;;20.20;38.50;;;;;;5115583;28;20563;-77
2022/02/21 02:29:21;;;;;;;0.40;0.40;;;20.10;38.50;;;;;;5116101;28;20048;-77
2022/02/21 02:31:48;;;;;;;0.50;0.50;;;20.20;38.50;;;;;;5097253;28;20051;-76
2022/02/21 02:34:14;;;;;;;0.50;0.50;;;20.20;39.10;;;;;;5115451;28;20454;-76
2022/02/21 02:36:39;;;;;;;0.30;0.30;;;20.20;38.50;;;;;;5113656;28;20407;-77
2022/02/21 02:39:05;;;;;;;0.40;0.40;;;20.10;38.40;;;;;;5115344;28;20055;-76
2022/02/21 02:41:30;;;;;;;0.40;0.40;;;20.20;38.50;;;;;;5094880;28;20487;-77
2022/02/21 02:43:56;;;;;;;0.65;0.50;;;20.20;38.50;;;;;;5097494;28;20616;-76
2022/02/21 02:46:21;;;;;;;0.30;0.30;;;20.10;38.50;;;;;;5115561;28;20521;-77
2022/02/21 02:48:48;;;;;;;0.50;0.50;;;20.20;38.50;;;;;;5115082;28;20055;-77
2022/02/21 02:51:15;;;;;;;0.40;0.40;;;20.20;38.50;;;;;;5115619;28;20132;-76
2022/02/21 02:53:42;;;;;;;0.40;0.40;;;20.10;38.40;;;;;;5115152;28;20051;-76
2022/02/21 02:56:08;;;;;;;0.40;0.40;;;20.20;38.50;;;;;;5114997;28;20047;-77
2022/02/21 02:58:33;;;;;;;0.40;0.40;;;20.10;38.50;;;;;;5115383;28;20051;-76
2022/02/21 03:00:59;;;;;;;0.50;0.50;;;20.20;38.50;;;;;;5115052;28;20059;-76
2022/02/21 03:03:24;;;;;;;0.38;0.38;;;20.10;38.40;;;;;;5112093;28;20052;-76
2022/02/21 03:05:50;;;;;;;0.60;0.50;;;20.10;38.50;;;;;;5111582;28;20052;-77
2022/02/21 03:08:16;;;;;;;0.63;0.50;;;20.20;38.50;;;;;;5114523;28;20089;-76
2022/02/21 03:10:41;;;;;;;0.57;0.57;;;20.20;38.50;;;;;;5114603;28;20132;-77
2022/02/21 03:13:07;;;;;;;0.60;0.45;;;20.20;38.50;;;;;;5114817;28;20050;-76
2022/02/21 03:15:32;;;;;;;0.35;0.35;;;20.20;38.40;;;;;;5114856;28;20504;-76
2022/02/21 03:17:58;;;;;;;0.40;0.40;;;20.20;38.50;;;;;;5114944;28;20051;-77
2022/02/21 03:20:24;;;;;;;0.55;0.50;;;20.20;38.50;;;;;;5114754;28;20055;-77
2022/02/21 03:22:50;;;;;;;0.70;0.70;;;20.20;38.40;;;;;;5114950;28;20044;-77
2022/02/21 03:25:15;;;;;;;0.38;0.38;;;20.30;38.40;;;;;;5096302;28;20069;-76
2022/02/21 03:27:42;;;;;;;0.40;0.40;;;20.20;38.40;;;;;;5096186;28;20451;-76
2022/02/21 03:30:09;;;;;;;0.40;0.40;;;20.30;38.40;;;;;;5096573;28;20421;-77
2022/02/21 03:32:34;;;;;;;0.40;0.40;;;20.30;38.40;;;;;;5114563;28;20051;-76
2022/02/21 03:35:00;;;;;;;0.40;0.40;;;20.30;38.40;;;;;;5094607;28;20048;-76
2022/02/21 03:37:25;;;;;;;0.40;0.40;;;20.30;38.40;;;;;;5096036;28;20054;-77
2022/02/21 03:39:51;;;;;;;0.50;0.50;;;20.30;38.40;;;;;;5114245;28;20109;-76
2022/02/21 03:42:16;;;;;;;0.40;0.40;;;20.30;38.30;;;;;;5113145;28;20108;-76
2022/02/21 03:44:43;;;;;;;0.68;0.50;;;20.30;38.30;;;;;;5095890;28;20044;-77
2022/02/21 03:47:08;;;;;;;0.60;0.60;;;20.40;38.30;;;;;;5114505;28;20479;-76
2022/02/21 03:49:34;;;;;;;0.40;0.40;;;20.40;38.30;;;;;;5113138;28;20109;-76
2022/02/21 03:52:00;;;;;;;0.40;0.40;;;20.40;38.30;;;;;;5114472;28;20051;-76
2022/02/21 03:54:26;;;;;;;0.60;0.50;;;20.40;38.30;;;;;;5114459;28;20146;-77
2022/02/21 03:56:51;;;;;;;0.40;0.40;;;20.40;38.30;;;;;;5095905;28;20051;-76
2022/02/21 03:59:17;;;;;;;0.88;0.60;;;20.40;38.30;;;;;;5114290;28;20052;-77
2022/02/21 04:01:42;;;;;;;0.88;0.50;;;20.40;38.20;;;;;;5113928;28;20055;-76
2022/02/21 04:04:08;;;;;;;0.45;0.40;;;20.40;38.20;;;;;;5114059;28;20173;-76
2022/02/21 04:06:33;;;;;;;0.52;0.40;;;20.50;38.20;;;;;;5114053;28;20059;-77
2022/02/21 04:08:59;;;;;;;0.40;0.40;;;20.50;38.20;;;;;;5095425;28;20055;-77
2022/02/21 04:11:24;;;;;;;1.00;0.45;;;20.50;38.20;;;;;;5095531;28;20055;-77
2022/02/21 04:13:51;;;;;;;0.40;0.40;;;20.50;38.20;;;;;;5095631;28;20058;-76
2022/02/21 04:16:18;;;;;;;0.47;0.40;;;20.50;38.20;;;;;;5113799;28;20138;-76
2022/02/21 04:18:46;;;;;;;0.57;0.43;;;20.50;38.10;;;;;;5113596;28;20047;-77
2022/02/21 04:21:12;;;;;;;0.45;0.40;;;20.50;38.10;;;;;;5113757;28;20134;-76
2022/02/21 04:23:38;;;;;;;0.50;0.50;;;20.50;38.10;;;;;;5113684;28;20055;-77
2022/02/21 04:26:03;;;;;;;0.43;0.43;;;20.60;38.20;;;;;;5114302;28;20055;-76
2022/02/21 04:28:29;;;;;;;0.85;0.60;;;20.50;38.10;;;;;;5113166;28;20074;-76
2022/02/21 04:30:55;;;;;;;0.43;0.43;;;20.60;38.10;;;;;;5113637;28;20051;-77
2022/02/21 04:33:20;;;;;;;0.45;0.40;;;20.60;38.10;;;;;;5113349;28;20080;-76
2022/02/21 04:35:46;;;;;;;0.55;0.55;;;20.60;38.10;;;;;;5113470;28;20062;-77
2022/02/21 04:38:13;;;;;;;0.40;0.40;;;20.60;38.10;;;;;;5078060;28;20538;-76
2022/02/21 04:40:38;;;;;;;0.85;0.40;;;20.60;38.10;;;;;;5113168;28;20052;-76
2022/02/21 04:43:04;;;;;;;0.40;0.40;;;20.60;38.10;;;;;;5113381;28;20044;-76
2022/02/21 04:45:30;;;;;;;0.90;0.50;;;20.60;38.10;;;;;;5113917;28;20097;-77
2022/02/21 04:47:55;;;;;;;0.70;0.50;;;20.60;38.10;;;;;;5094777;28;20092;-76
2022/02/21 04:50:21;;;;;;;0.77;0.50;;;20.60;38.10;;;;;;5113708;28;20074;-76
2022/02/21 04:52:47;;;;;;;0.50;0.50;;;20.60;38.10;;;;;;5094101;28;20048;-76
2022/02/21 04:55:13;;;;;;;0.40;0.40;;;20.60;38.10;;;;;;5113602;28;20059;-77
2022/02/21 04:57:39;;;;;;;0.40;0.40;;;20.60;38.10;;;;;;5113037;28;20043;-76
2022/02/21 05:00:08;;;;;;;0.50;0.45;;;20.60;38.10;;;;;;5094807;28;20082;-76
2022/02/21 05:02:34;;;;;;;0.50;0.50;;;20.60;38.10;;;;;;5113034;28;20096;-77
2022/02/21 05:05:00;;;;;;;0.32;0.32;;;20.60;38.10;;;;;;5113118;28;20052;-76
2022/02/21 05:07:25;;;;;;;0.45;0.45;;;20.60;38.10;;;;;;5092732;28;20047;-77
2022/02/21 05:09:51;;;;;;;0.40;0.40;;;20.60;38.10;;;;;;5112360;28;20105;-76
2022/02/21 05:12:16;;;;;;;0.57;0.47;;;20.60;38.10;;;;;;5113529;28;20047;-77
2022/02/21 05:14:42;;;;;;;0.80;0.50;;;20.60;38.10;;;;;;5113038;28;20058;-76
2022/02/21 05:17:07;;;;;;;0.52;0.50;;;20.60;38.10;;;;;;5094745;28;20387;-76
2022/02/21 05:19:33;;;;;;;0.77;0.50;;;20.60;38.10;;;;;;5112676;28;20048;-77
2022/02/21 05:21:59;;;;;;;0.82;0.50;;;20.60;38.10;;;;;;5112828;28;20376;-77
2022/02/21 05:24:25;;;;;;;0.60;0.50;;;20.60;38.10;;;;;;5094456;28;20053;-76
2022/02/21 05:26:52;;;;;;;1.30;0.50;;;20.60;38.10;;;;;;5113455;28;20445;-76
2022/02/21 05:29:17;;;;;;;0.60;0.50;;;20.60;38.20;;;;;;5112722;28;20050;-76
2022/02/21 05:31:44;;;;;;;0.63;0.57;;;20.60;38.10;;;;;;5113359;28;20394;-77
2022/02/21 05:34:10;;;;;;;0.50;0.50;;;20.50;38.10;;;;;;5077561;28;20051;-77
2022/02/21 05:36:35;;;;;;;0.30;0.30;;;20.50;38.10;;;;;;5112756;28;20058;-77
2022/02/21 05:39:01;;;;;;;0.35;0.35;;;20.60;38.10;;;;;;5112640;28;20063;-76
2022/02/21 05:41:27;;;;;;;0.60;0.50;;;20.60;38.20;;;;;;5112958;28;20109;-76
2022/02/21 05:43:52;;;;;;;0.73;0.50;;;20.60;38.20;;;;;;5112917;28;20123;-76
2022/02/21 05:46:19;;;;;;;0.40;0.40;;;20.60;38.10;;;;;;5112654;28;20048;-76
2022/02/21 05:48:46;;;;;;;1.40;0.50;;;20.60;38.20;;;;;;5094209;28;20058;-77
2022/02/21 05:51:13;;;;;;;0.82;0.60;;;20.60;38.20;;;;;;5094436;28;20051;-77
2022/02/21 05:53:43;;;;;;;0.60;0.50;;;20.50;38.10;;;;;;5112514;28;20047;-76
2022/02/21 05:56:09;;;;;;;0.50;0.40;;;20.60;38.20;;;;;;5112819;28;20142;-76
2022/02/21 05:58:35;;;;;;;0.63;0.50;;;20.60;38.10;;;;;;5112182;28;20161;-77
2022/02/21 06:01:01;;;;;;;0.65;0.40;;;20.60;38.10;;;;;;5111701;28;20104;-76
2022/02/21 06:03:26;;;;;;;0.88;0.60;;;20.50;38.10;;;;;;5112127;28;20529;-76
2022/02/21 06:05:52;;;;;;;0.63;0.50;;;20.50;38.20;;;;;;5112316;28;20051;-76
2022/02/21 06:08:17;;;;;;;0.40;0.40;;;20.60;38.20;;;;;;5112117;28;20054;-76
2022/02/21 06:10:43;;;;;;;0.80;0.60;;;20.60;38.10;;;;;;5112259;28;20511;-77
2022/02/21 06:13:08;;;;;;;1.88;0.60;;;20.60;38.20;;;;;;5097153;28;20142;-77
2022/02/21 06:15:34;;;;;;;0.63;0.63;;;20.60;38.20;;;;;;5115747;28;20047;-77
2022/02/21 06:18:00;;;;;;;1.10;0.50;;;20.60;38.20;;;;;;5097273;28;20878;-77
2022/02/21 06:20:27;;;;;;;0.63;0.50;;;20.60;38.20;;;;;;5115431;28;20064;-77
2022/02/21 06:22:53;;;;;;;0.70;0.70;;;20.60;38.20;;;;;;5115772;28;20079;-76
2022/02/21 06:25:19;;;;;;;0.98;0.50;;;20.60;38.10;;;;;;5115608;28;20040;-77
2022/02/21 06:27:45;;;;;;;1.27;0.50;;;20.60;38.10;;;;;;5116080;28;20047;-77
2022/02/21 06:30:11;;;;;;;0.50;0.50;;;20.60;38.10;;;;;;5115388;28;20449;-76
2022/02/21 06:32:36;;;;;;;0.50;0.50;;;20.50;38.00;;;;;;5115543;28;20059;-77
2022/02/21 06:35:02;;;;;;;0.50;0.50;;;20.60;38.10;;;;;;5115418;28;20112;-76
2022/02/21 06:37:27;;;;;;;0.98;0.60;;;20.60;38.10;;;;;;5115361;28;20479;-77
2022/02/21 06:39:53;;;;;;;0.50;0.40;;;20.60;38.10;;;;;;5080112;28;20388;-76
2022/02/21 06:42:19;;;;;;;0.60;0.60;;;20.60;38.10;;;;;;5115219;28;20101;-76
2022/02/21 06:44:44;;;;;;;0.60;0.47;;;20.60;38.10;;;;;;5097447;28;20116;-76
2022/02/21 06:47:10;;;;;;;0.40;0.40;;;20.60;38.10;;;;;;5115694;28;20134;-76
2022/02/21 06:49:35;;;;;;;0.90;0.63;;;20.60;38.10;;;;;;5113992;28;20540;-76
2022/02/21 06:52:01;;;;;;;0.82;0.50;;;20.50;38.10;;;;;;5115100;28;20057;-77
2022/02/21 06:54:27;;;;;;;0.80;0.60;;;20.60;38.10;;;;;;5097037;28;20135;-77
2022/02/21 06:56:52;;;;;;;0.45;0.43;;;20.60;38.10;;;;;;5115045;28;20051;-76
2022/02/21 06:59:18;;;;;;;0.75;0.65;;;20.60;38.10;;;;;;5096626;28;20052;-76
2022/02/21 07:01:43;;;;;;;2.10;0.85;;;20.60;38.10;;;;;;5115306;28;20052;-76
2022/02/21 07:04:09;;;;;;;1.25;0.70;;;20.60;38.10;;;;;;5096486;28;20444;-77
2022/02/21 07:06:35;;;;;;;1.15;0.50;;;20.60;38.60;;;;;;5113628;28;20414;-76
2022/02/21 07:09:03;;;;;;;1.40;0.50;;;20.60;38.10;;;;;;5114494;28;20387;-77
2022/02/21 07:11:29;;;;;;;0.73;0.50;;;20.60;38.10;;;;;;5113337;28;20086;-77
2022/02/21 07:13:54;;;;;;;0.80;0.60;;;20.60;38.00;;;;;;5115248;28;20436;-77
2022/02/21 07:16:20;;;;;;;0.93;0.50;;;20.60;38.00;;;;;;5114577;28;20173;-77
2022/02/21 07:18:47;;;;;;;0.90;0.40;;;20.60;38.00;;;;;;5114539;28;20063;-76
2022/02/21 07:21:13;;;;;;;0.63;0.60;;;20.60;38.00;;;;;;5096221;28;20044;-77
2022/02/21 07:23:39;;;;;;;0.40;0.40;;;20.60;37.90;;;;;;5113153;28;20128;-77
2022/02/21 07:26:05;;;;;;;1.60;0.63;;;20.60;37.90;;;;;;5095160;28;20105;-77
2022/02/21 07:28:31;;;;;;;0.50;0.50;;;20.60;37.90;;;;;;5114402;28;20109;-76
2022/02/21 07:30:57;;;;;;;1.05;0.60;;;20.60;37.90;;;;;;5114445;28;20047;-77
2022/02/21 07:33:23;;;;;;;0.73;0.50;;;20.70;37.90;;;;;;5114232;28;20056;-76
2022/02/21 07:35:48;;;;;;;0.73;0.43;;;20.60;37.90;;;;;;5114231;28;20051;-77
2022/02/21 07:38:14;;;;;;;0.80;0.50;;;20.60;37.90;;;;;;5114158;28;20054;-77
2022/02/21 07:40:39;;;;;;;0.88;0.73;;;20.70;37.90;;;;;;5111895;28;20059;-76
2022/02/21 07:43:05;;;;;;;1.02;0.50;;;20.70;37.90;;;;;;5114288;28;20055;-77
2022/02/21 07:45:31;;;;;;;1.05;0.65;;;20.70;37.80;;;;;;5095664;28;20150;-77
2022/02/21 07:47:58;;;;;;;1.17;0.60;;;20.80;37.70;;;;;;5078661;28;20054;-76
2022/02/21 07:50:26;;;;;;;0.50;0.40;;;20.90;37.50;;;;;;5114053;28;20053;-76
2022/02/21 07:52:52;;;;;;;0.43;0.43;;;21.00;37.40;;;;;;5114143;28;20047;-76
2022/02/21 07:55:18;;;;;;;2.00;0.70;;;21.00;37.30;;;;;;5114026;28;20138;-77
2022/02/21 07:57:45;;;;;;;0.80;0.60;;;20.90;37.40;;;;;;5113939;28;20131;-76
2022/02/21 08:00:13;;;;;;;1.88;0.60;;;20.90;37.50;;;;;;5113905;28;20055;-77
2022/02/21 08:02:39;;;;;;;0.50;0.50;;;20.80;37.60;;;;;;5114061;28;20059;-76
2022/02/21 08:05:06;;;;;;;0.63;0.47;;;20.80;37.70;;;;;;5093804;28;20563;-76
2022/02/21 08:07:32;;;;;;;0.75;0.50;;;20.70;37.70;;;;;;5113792;28;20193;-76
2022/02/21 08:09:58;;;;;;;1.35;0.70;;;20.70;37.80;;;;;;5113720;28;20101;-76
2022/02/21 08:12:23;;;;;;;1.52;0.75;;;20.70;37.80;;;;;;5114114;28;20056;-76
2022/02/21 08:14:49;;;;;;;0.60;0.60;;;20.70;37.90;;;;;;5113666;28;20148;-77
2022/02/21 08:17:15;;;;;;;1.63;0.60;;;20.60;37.90;;;;;;5113743;28;20059;-77
2022/02/21 08:19:40;;;;;;;2.67;0.73;;;20.60;37.90;;;;;;5113612;28;20138;-77
2022/02/21 08:22:06;;;;;;;0.98;0.65;;;20.60;38.00;;;;;;5113921;28;20491;-76
2022/02/21 08:24:31;;;;;;;1.02;0.80;;;20.60;38.00;;;;;;5113570;28;20047;-76
2022/02/21 08:26:57;;;;;;;0.80;0.63;;;20.60;38.00;;;;;;5113957;28;20134;-77
2022/02/21 08:29:23;;;;;;;0.85;0.63;;;20.60;38.10;;;;;;5095039;28;20441;-76
2022/02/21 08:31:48;;;;;;;0.63;0.63;;;20.60;38.10;;;;;;5113528;28;20067;-76
2022/02/21 08:34:16;;;;;;;1.33;0.70;;;20.60;38.10;;;;;;5113275;28;20541;-76
2022/02/21 08:36:42;;;;;;;1.80;0.80;;;20.60;38.10;;;;;;5093587;28;20083;-76
2022/02/21 08:39:08;;;;;;;1.13;0.70;;;20.60;38.10;;;;;;5113161;28;20055;-76
2022/02/21 08:41:33;;;;;;;0.57;0.57;;;20.50;38.00;;;;;;5113348;28;20537;-76
2022/02/21 08:43:59;;;;;;;1.10;0.63;;;20.60;38.10;;;;;;5113404;28;20138;-77
2022/02/21 08:46:25;;;;;;;0.98;0.60;;;20.60;38.10;;;;;;5113292;28;20096;-76
2022/02/21 08:48:50;;;;;;;0.98;0.63;;;20.50;38.00;;;;;;5111854;28;20411;-77
2022/02/21 08:51:16;;;;;;;0.85;0.60;;;20.50;38.00;;;;;;5113239;28;20101;-76
2022/02/21 08:53:42;;;;;;;0.98;0.70;;;20.50;38.10;;;;;;5113180;28;20055;-76
2022/02/21 08:56:08;;;;;;;0.82;0.65;;;20.50;38.10;;;;;;5113103;28;20079;-77
2022/02/21 08:58:34;;;;;;;0.73;0.60;;;20.50;38.00;;;;;;5093551;28;20048;-76
2022/02/21 09:01:00;;;;;;;1.77;0.82;;;20.50;38.10;;;;;;5093131;28;20051;-76
2022/02/21 09:03:26;;;;;;;2.35;0.88;;;20.60;38.10;;;;;;5112767;28;20056;-77
2022/02/21 09:05:53;;;;;;;0.95;0.60;;;20.50;38.00;;;;;;5112829;28;20403;-77
2022/02/21 09:08:18;;;;;;;1.60;0.80;;;20.50;38.10;;;;;;5112534;28;20047;-76
2022/02/21 09:10:44;;;;;;;2.15;1.00;;;20.50;38.10;;;;;;5112892;28;20044;-77
2022/02/21 09:13:10;;;;;;;1.17;0.63;;;20.50;38.00;;;;;;5093225;28;20059;-76
2022/02/21 09:15:36;;;;;;;4.78;0.60;;;20.60;38.10;;;;;;5110475;28;20105;-77
2022/02/21 09:18:04;;;;;;;2.20;0.90;;;20.50;38.00;;;;;;5075401;28;20067;-77
2022/02/21 09:20:33;;;;;;;0.80;0.57;;;20.50;38.00;;;;;;5112809;28;20123;-77
2022/02/21 09:22:59;;;;;;;1.30;0.88;;;20.50;38.00;;;;;;5112794;28;20147;-77
2022/02/21 09:25:25;;;;;;;1.58;0.95;;;20.50;38.00;;;;;;5094693;28;20055;-76
2022/02/21 09:27:52;;;;;;;1.80;0.75;;;20.50;38.00;;;;;;5094509;28;20048;-76
2022/02/21 09:30:17;;;;;;;0.70;0.68;;;20.50;38.00;;;;;;5111574;28;20421;-77
2022/02/21 09:32:43;;;;;;;1.45;0.80;;;20.60;38.10;;;;;;5112695;28;20105;-76
2022/02/21 09:35:09;;;;;;;0.98;0.77;;;20.60;38.10;;;;;;5094431;28;20109;-76
2022/02/21 09:37:36;;;;;;;1.83;0.70;;;20.60;38.00;;;;;;5094448;28;20086;-76
2022/02/21 09:40:04;;;;;;;1.80;0.88;;;20.60;38.00;;;;;;5112488;28;20047;-77
2022/02/21 09:42:30;;;;;;;1.52;0.85;;;20.60;38.00;;;;;;5094182;28;20079;-77
2022/02/21 09:44:55;;;;;;;0.70;0.60;;;20.60;38.00;;;;;;5094101;28;20087;-77
2022/02/21 09:47:23;;;;;;;1.02;0.50;;;20.60;38.00;;;;;;5096017;28;20112;-76
2022/02/21 09:49:51;;;;;;;0.60;0.50;;;20.60;38.00;;;;;;5097954;28;20055;-77
2022/02/21 09:52:17;;;;;;;2.10;0.80;;;20.60;37.90;;;;;;5114680;28;20101;-77
2022/02/21 09:54:43;;;;;;;2.45;0.60;;;20.60;37.90;;;;;;5115942;28;20054;-76
2022/02/21 09:57:09;;;;;;;1.63;0.70;;;20.70;37.90;;;;;;5097595;28;20085;-76
2022/02/21 09:59:35;;;;;;;0.98;0.70;;;20.70;37.80;;;;;;5115836;28;20082;-77
2022/02/21 10:02:01;;;;;;;1.83;1.13;;;20.70;37.80;;;;;;5096628;28;20051;-77
2022/02/21 10:04:29;;;;;;;1.67;0.80;;;20.70;37.70;;;;;;5115829;28;20060;-76
2022/02/21 10:06:56;;;;;;;1.08;0.60;;;20.80;37.70;;;;;;5115636;28;20069;-76
2022/02/21 10:09:25;;;;;;;1.95;0.90;;;20.80;37.70;;;;;;5115993;28;20058;-77
2022/02/21 10:11:54;;;;;;;1.30;0.85;;;20.80;37.70;;;;;;5115608;28;20059;-77
2022/02/21 10:14:27;;;;;;;1.20;0.77;;;20.80;37.70;;;;;;5097261;28;20057;-77
2022/02/21 10:16:58;;;;;;;1.23;0.68;;;20.80;37.60;;;;;;5115782;28;20514;-76
2022/02/21 10:19:25;;;;;;;;;;;20.80;37.60;;;;;;5093808;28;20059;-76
2022/02/21 10:22:06;;;;;;;1.83;1.00;;;20.80;37.60;;;;;;5097069;28;19915;-76
2022/02/21 10:24:41;;;;;;;1.52;0.88;;;20.90;38.10;;;;;;5097250;28;20109;-76
2022/02/21 10:27:13;;;;;;;1.52;0.90;;;20.90;37.50;;;;;;5115474;28;20051;-77
2022/02/21 10:29:53;;;;;;;1.40;0.70;;;20.90;37.50;;;;;;5115419;28;20480;-76
2022/02/21 10:32:21;;;;;;;1.90;1.08;;;20.90;37.50;;;;;;5115705;28;20138;-77
2022/02/21 10:34:48;;;;;;;2.33;0.90;;;20.90;37.40;;;;;;5096005;28;20052;-76
2022/02/21 10:37:19;;;;;;;2.28;1.15;;;20.90;37.40;;;;;;5095192;28;20054;-76
2022/02/21 10:39:45;;;;;;;0.80;0.70;;;20.90;37.40;;;;;;5115161;28;20081;-76
2022/02/21 10:42:11;;;;;;;2.25;0.90;;;20.90;37.40;;;;;;5111907;28;20044;-76
2022/02/21 10:44:38;;;;;;;1.48;0.60;;;20.90;37.30;;;;;;5114270;28;20502;-76
2022/02/21 10:47:13;;;;;;;1.23;0.77;;;21.00;37.40;;;;;;5096280;28;20396;-76
2022/02/21 10:49:47;;;;;;;1.90;0.80;;;21.00;37.40;;;;;;5115286;28;20083;-76
2022/02/21 10:52:19;;;;;;;3.72;1.05;;;21.00;37.40;;;;;;5113848;28;20142;-76
2022/02/21 10:54:46;;;;;;;1.67;0.90;;;20.90;37.40;;;;;;5096823;28;20075;-76
2022/02/21 10:57:14;;;;;;;2.00;0.88;;;20.90;37.40;;;;;;5096190;28;20087;-76
2022/02/21 10:59:40;;;;;;;2.45;0.80;;;20.90;37.40;;;;;;5113364;28;20058;-76
2022/02/21 11:02:07;;;;;;;1.20;0.82;;;20.90;37.50;;;;;;5096548;28;20403;-76
2022/02/21 11:04:36;;;;;;;1.98;0.90;;;20.90;37.50;;;;;;5114765;28;20062;-76
2022/02/21 11:07:02;;;;;;;2.97;1.00;;;20.90;37.50;;;;;;5114621;28;20576;-76
2022/02/21 11:09:29;;;;;;;2.53;0.93;;;20.90;37.50;;;;;;5114671;28;20475;-76
2022/02/21 11:11:57;;;;;;;1.50;0.75;;;20.90;37.50;;;;;;5096357;28;20058;-76
2022/02/21 11:14:26;;;;;;;2.13;1.00;;;20.90;37.50;;;;;;5096410;28;20047;-76
2022/02/21 11:16:53;;;;;;;1.25;0.73;;;20.90;37.50;;;;;;5114982;28;20056;-76
2022/02/21 11:19:19;;;;;;;1.70;0.88;;;21.00;37.50;;;;;;5114325;28;20453;-76
2022/02/21 11:21:47;;;;;;;1.30;0.80;;;20.90;37.50;;;;;;5114799;28;20058;-76
2022/02/21 11:24:14;;;;;;;1.27;0.80;;;20.90;37.50;;;;;;5114497;28;20065;-76
2022/02/21 11:26:52;;;;;;;2.05;0.90;;;21.00;37.50;;;;;;5114382;28;20051;-76
2022/02/21 11:29:26;;;;;;;1.15;0.80;;;20.90;37.50;;;;;;5111063;28;20060;-76
2022/02/21 11:31:52;;;;;;;1.27;0.90;;;21.00;37.50;;;;;;5114773;28;20055;-76
2022/02/21 11:34:18;;;;;;;2.38;0.93;;;20.90;37.40;;;;;;5114712;28;20050;-76
2022/02/21 11:36:47;;;;;;;1.52;0.80;;;21.00;37.40;;;;;;5096056;28;20552;-76
2022/02/21 11:39:20;;;;;;;1.30;0.73;;;21.00;37.40;;;;;;5114453;28;20047;-76
2022/02/21 11:41:45;;;;;;;1.73;0.70;;;21.00;37.30;;;;;;5096043;28;20055;-76
2022/02/21 11:44:22;;;;;;;1.08;0.88;;;21.00;37.30;;;;;;5113066;28;20047;-76
2022/02/21 11:46:48;;;;;;;1.77;0.90;;;21.00;37.30;;;;;;5114013;28;20048;-76
2022/02/21 11:49:28;;;;;;;1.92;1.10;;;21.00;37.30;;;;;;5114042;28;20083;-76
2022/02/21 11:51:54;;;;;;;1.35;0.80;;;21.00;37.30;;;;;;5114207;28;20055;-76
2022/02/21 11:54:19;;;;;;;1.92;1.17;;;21.00;37.30;;;;;;5095561;28;20175;-76
2022/02/21 11:56:48;;;;;;;1.30;0.90;;;21.00;37.30;;;;;;5113904;28;20104;-76
2022/02/21 11:59:22;;;;;;;2.63;0.85;;;21.00;37.30;;;;;;5095808;28;20052;-76
2022/02/21 12:02:15;;;;;;;1.02;0.70;;;21.00;37.40;;;;;;5113998;28;20051;-76
2022/02/21 12:04:57;;;;;;;2.33;1.08;;;21.00;37.40;;;;;;5114058;28;20086;-76
2022/02/21 12:07:35;;;;;;;1.23;0.80;;;21.00;37.30;;;;;;5113988;28;20056;-76
2022/02/21 12:10:14;;;;;;;1.38;0.80;;;21.00;37.30;;;;;;5112961;28;20051;-76
2022/02/21 12:13:02;;;;;;;1.90;1.00;;;21.00;37.40;;;;;;5113923;28;20507;-76
2022/02/21 12:15:30;;;;;;;2.00;0.80;;;21.00;37.40;;;;;;5095570;28;20048;-76
2022/02/21 12:18:02;;;;;;;1.40;0.90;;;21.00;37.40;;;;;;5113697;28;20134;-76
2022/02/21 12:20:27;;;;;;;0.95;0.52;;;21.00;37.40;;;;;;5095394;28;20047;-76
2022/02/21 12:23:08;;;;;;;1.33;0.80;;;20.90;37.40;;;;;;5095297;28;20097;-76
2022/02/21 12:25:41;;;;;;;1.15;0.82;;;20.90;37.40;;;;;;5113869;28;20063;-76
2022/02/21 12:28:19;;;;;;;1.65;1.00;;;20.90;37.40;;;;;;5078091;28;20491;-76
2022/02/21 12:30:48;;;;;;;1.90;1.17;;;20.90;37.40;;;;;;5113264;28;20057;-76
2022/02/21 12:33:23;;;;;;;1.45;0.82;;;20.90;37.40;;;;;;5093570;28;20052;-76
2022/02/21 12:35:57;;;;;;;1.38;0.80;;;21.00;37.50;;;;;;5094103;28;20116;-76
2022/02/21 12:38:25;;;;;;;1.42;0.93;;;20.90;37.40;;;;;;5113235;28;20062;-76
2022/02/21 12:40:51;;;;;;;2.08;1.10;;;20.90;37.50;;;;;;5113140;28;20557;-76
2022/02/21 12:43:17;;;;;;;2.38;1.30;;;20.90;37.50;;;;;;5113255;28;20510;-76
2022/02/21 12:45:43;;;;;;;1.67;0.80;;;20.90;37.50;;;;;;5113547;28;20048;-76